sensor_id;sensor_type;location;lat;lon;timestamp;temperature;humidity
19567;DHT22;9930;49.240;8.548;2023-12-22T00:00:04;11.30;79.50
19567;DHT22;9930;49.240;8.548;2023-12-22T00:02:30;11.20;79.50
19567;DHT22;9930;49.240;8.548;2023-12-22T00:04:58;11.10;79.70
19567;DHT22;9930;49.240;8.548;2023-12-22T00:07:24;11.00;79.80
19567;DHT22;9930;49.240;8.548;2023-12-22T00:09:53;10.90;79.90
19567;DHT22;9930;49.240;8.548;2023-12-22T00:12:19;10.80;80.10
19567;DHT22;9930;49.240;8.548;2023-12-22T00:14:45;10.80;80.10
19567;DHT22;9930;49.240;8.548;2023-12-22T00:17:10;10.70;80.40
19567;DHT22;9930;49.240;8.548;2023-12-22T00:19:39;10.60;80.70
19567;DHT22;9930;49.240;8.548;2023-12-22T00:22:08;10.60;81.00
19567;DHT22;9930;49.240;8.548;2023-12-22T00:24:37;10.50;81.20
19567;DHT22;9930;49.240;8.548;2023-12-22T00:27:09;10.40;81.50
19567;DHT22;9930;49.240;8.548;2023-12-22T00:29:38;10.40;81.80
19567;DHT22;9930;49.240;8.548;2023-12-22T00:32:05;10.40;81.80
19567;DHT22;9930;49.240;8.548;2023-12-22T00:34:32;10.40;81.90
19567;DHT22;9930;49.240;8.548;2023-12-22T00:37:00;10.40;82.10
19567;DHT22;9930;49.240;8.548;2023-12-22T00:39:30;10.30;82.10
19567;DHT22;9930;49.240;8.548;2023-12-22T00:41:56;10.30;82.10
19567;DHT22;9930;49.240;8.548;2023-12-22T00:44:22;10.30;82.20
19567;DHT22;9930;49.240;8.548;2023-12-22T00:46:48;10.30;82.40
19567;DHT22;9930;49.240;8.548;2023-12-22T00:49:16;10.30;82.40
19567;DHT22;9930;49.240;8.548;2023-12-22T00:51:44;10.30;82.40
19567;DHT22;9930;49.240;8.548;2023-12-22T00:54:12;10.30;82.40
19567;DHT22;9930;49.240;8.548;2023-12-22T00:56:41;10.30;82.40
19567;DHT22;9930;49.240;8.548;2023-12-22T00:59:08;10.30;83.10
19567;DHT22;9930;49.240;8.548;2023-12-22T01:01:35;10.30;82.40
19567;DHT22;9930;49.240;8.548;2023-12-22T01:04:03;10.30;82.60
19567;DHT22;9930;49.240;8.548;2023-12-22T01:06:29;10.20;82.50
19567;DHT22;9930;49.240;8.548;2023-12-22T01:08:54;10.20;82.50
19567;DHT22;9930;49.240;8.548;2023-12-22T01:11:20;10.20;82.60
19567;DHT22;9930;49.240;8.548;2023-12-22T01:13:48;10.20;82.70
19567;DHT22;9930;49.240;8.548;2023-12-22T01:16:16;10.20;82.80
19567;DHT22;9930;49.240;8.548;2023-12-22T01:18:43;10.20;82.90
19567;DHT22;9930;49.240;8.548;2023-12-22T01:21:13;10.20;82.90
19567;DHT22;9930;49.240;8.548;2023-12-22T01:23:40;10.20;83.00
19567;DHT22;9930;49.240;8.548;2023-12-22T01:26:05;10.20;83.10
19567;DHT22;9930;49.240;8.548;2023-12-22T01:28:34;10.20;83.30
19567;DHT22;9930;49.240;8.548;2023-12-22T01:31:00;10.20;83.30
19567;DHT22;9930;49.240;8.548;2023-12-22T01:33:26;10.20;83.30
19567;DHT22;9930;49.240;8.548;2023-12-22T01:35:52;10.20;83.30
19567;DHT22;9930;49.240;8.548;2023-12-22T01:38:18;10.20;83.30
19567;DHT22;9930;49.240;8.548;2023-12-22T01:40:50;10.20;83.30
19567;DHT22;9930;49.240;8.548;2023-12-22T01:43:16;10.30;83.40
19567;DHT22;9930;49.240;8.548;2023-12-22T01:45:47;10.30;83.60
19567;DHT22;9930;49.240;8.548;2023-12-22T01:48:19;10.30;83.60
19567;DHT22;9930;49.240;8.548;2023-12-22T01:50:47;10.40;83.60
19567;DHT22;9930;49.240;8.548;2023-12-22T01:53:19;10.40;83.40
19567;DHT22;9930;49.240;8.548;2023-12-22T01:55:47;10.50;83.30
19567;DHT22;9930;49.240;8.548;2023-12-22T01:58:14;10.50;83.00
19567;DHT22;9930;49.240;8.548;2023-12-22T02:00:43;10.60;83.10
19567;DHT22;9930;49.240;8.548;2023-12-22T02:03:12;10.60;82.90
19567;DHT22;9930;49.240;8.548;2023-12-22T02:05:42;10.70;82.70
19567;DHT22;9930;49.240;8.548;2023-12-22T02:08:10;10.70;82.50
19567;DHT22;9930;49.240;8.548;2023-12-22T02:10:41;10.80;82.40
19567;DHT22;9930;49.240;8.548;2023-12-22T02:13:08;10.80;82.30
19567;DHT22;9930;49.240;8.548;2023-12-22T02:15:39;10.90;82.00
19567;DHT22;9930;49.240;8.548;2023-12-22T02:18:18;10.90;81.70
19567;DHT22;9930;49.240;8.548;2023-12-22T02:20:53;11.00;81.40
19567;DHT22;9930;49.240;8.548;2023-12-22T02:23:19;11.00;81.40
19567;DHT22;9930;49.240;8.548;2023-12-22T02:25:44;11.10;81.50
19567;DHT22;9930;49.240;8.548;2023-12-22T02:28:16;11.10;81.20
19567;DHT22;9930;49.240;8.548;2023-12-22T02:31:09;11.10;80.70
19567;DHT22;9930;49.240;8.548;2023-12-22T02:33:44;11.10;80.20
19567;DHT22;9930;49.240;8.548;2023-12-22T02:36:13;11.20;80.70
19567;DHT22;9930;49.240;8.548;2023-12-22T02:38:44;11.20;80.60
19567;DHT22;9930;49.240;8.548;2023-12-22T02:41:14;11.20;80.20
19567;DHT22;9930;49.240;8.548;2023-12-22T02:43:40;11.30;80.20
19567;DHT22;9930;49.240;8.548;2023-12-22T02:46:14;11.30;80.00
19567;DHT22;9930;49.240;8.548;2023-12-22T02:48:40;11.30;79.40
19567;DHT22;9930;49.240;8.548;2023-12-22T02:51:09;11.40;79.80
19567;DHT22;9930;49.240;8.548;2023-12-22T02:53:35;11.40;79.90
19567;DHT22;9930;49.240;8.548;2023-12-22T02:56:03;11.40;80.00
19567;DHT22;9930;49.240;8.548;2023-12-22T02:58:29;11.40;79.80
19567;DHT22;9930;49.240;8.548;2023-12-22T03:00:56;11.50;79.70
19567;DHT22;9930;49.240;8.548;2023-12-22T03:03:24;11.40;79.60
19567;DHT22;9930;49.240;8.548;2023-12-22T03:05:52;11.40;79.60
19567;DHT22;9930;49.240;8.548;2023-12-22T03:08:20;11.50;79.50
19567;DHT22;9930;49.240;8.548;2023-12-22T03:10:46;11.50;79.20
19567;DHT22;9930;49.240;8.548;2023-12-22T03:13:14;11.50;79.30
19567;DHT22;9930;49.240;8.548;2023-12-22T03:15:42;11.50;79.20
19567;DHT22;9930;49.240;8.548;2023-12-22T03:18:10;11.50;79.10
19567;DHT22;9930;49.240;8.548;2023-12-22T03:20:35;11.50;78.90
19567;DHT22;9930;49.240;8.548;2023-12-22T03:23:04;11.50;78.90
19567;DHT22;9930;49.240;8.548;2023-12-22T03:25:31;11.50;78.70
19567;DHT22;9930;49.240;8.548;2023-12-22T03:27:57;11.60;78.80
19567;DHT22;9930;49.240;8.548;2023-12-22T03:30:25;11.60;78.30
19567;DHT22;9930;49.240;8.548;2023-12-22T03:32:51;11.60;78.50
19567;DHT22;9930;49.240;8.548;2023-12-22T03:35:19;11.60;78.50
19567;DHT22;9930;49.240;8.548;2023-12-22T03:37:45;11.60;78.50
19567;DHT22;9930;49.240;8.548;2023-12-22T03:40:11;11.60;78.50
19567;DHT22;9930;49.240;8.548;2023-12-22T03:42:39;11.60;78.40
19567;DHT22;9930;49.240;8.548;2023-12-22T03:45:05;11.60;78.30
19567;DHT22;9930;49.240;8.548;2023-12-22T03:47:31;11.60;78.30
19567;DHT22;9930;49.240;8.548;2023-12-22T03:49:59;11.60;78.30
19567;DHT22;9930;49.240;8.548;2023-12-22T03:52:25;11.60;78.40
19567;DHT22;9930;49.240;8.548;2023-12-22T03:54:50;11.60;78.30
19567;DHT22;9930;49.240;8.548;2023-12-22T03:57:18;11.60;78.30
19567;DHT22;9930;49.240;8.548;2023-12-22T03:59:44;11.60;78.30
19567;DHT22;9930;49.240;8.548;2023-12-22T04:02:10;11.50;78.20
19567;DHT22;9930;49.240;8.548;2023-12-22T04:04:39;11.50;78.20
19567;DHT22;9930;49.240;8.548;2023-12-22T04:07:05;11.50;78.20
19567;DHT22;9930;49.240;8.548;2023-12-22T04:09:31;11.50;78.30
19567;DHT22;9930;49.240;8.548;2023-12-22T04:11:57;11.40;78.30
19567;DHT22;9930;49.240;8.548;2023-12-22T04:14:24;11.40;78.40
19567;DHT22;9930;49.240;8.548;2023-12-22T04:16:55;11.40;78.40
19567;DHT22;9930;49.240;8.548;2023-12-22T04:19:21;11.30;78.60
19567;DHT22;9930;49.240;8.548;2023-12-22T04:21:47;11.30;78.50
19567;DHT22;9930;49.240;8.548;2023-12-22T04:24:13;11.30;78.60
19567;DHT22;9930;49.240;8.548;2023-12-22T04:26:39;11.20;78.60
19567;DHT22;9930;49.240;8.548;2023-12-22T04:29:08;11.20;78.80
19567;DHT22;9930;49.240;8.548;2023-12-22T04:31:39;11.20;78.80
19567;DHT22;9930;49.240;8.548;2023-12-22T04:34:05;11.10;78.90
19567;DHT22;9930;49.240;8.548;2023-12-22T04:36:35;11.10;79.00
19567;DHT22;9930;49.240;8.548;2023-12-22T04:39:01;11.10;79.00
19567;DHT22;9930;49.240;8.548;2023-12-22T04:41:27;11.10;79.00
19567;DHT22;9930;49.240;8.548;2023-12-22T04:43:52;11.10;79.10
19567;DHT22;9930;49.240;8.548;2023-12-22T04:46:18;11.10;79.10
19567;DHT22;9930;49.240;8.548;2023-12-22T04:48:44;11.20;79.20
19567;DHT22;9930;49.240;8.548;2023-12-22T04:51:09;11.10;79.00
19567;DHT22;9930;49.240;8.548;2023-12-22T04:53:37;11.20;79.10
19567;DHT22;9930;49.240;8.548;2023-12-22T04:56:05;11.20;79.10
19567;DHT22;9930;49.240;8.548;2023-12-22T04:58:31;11.20;78.80
19567;DHT22;9930;49.240;8.548;2023-12-22T05:00:57;11.20;78.80
19567;DHT22;9930;49.240;8.548;2023-12-22T05:03:25;11.20;78.80
19567;DHT22;9930;49.240;8.548;2023-12-22T05:05:53;11.20;78.60
19567;DHT22;9930;49.240;8.548;2023-12-22T05:08:18;11.30;78.60
19567;DHT22;9930;49.240;8.548;2023-12-22T05:10:47;11.30;78.60
19567;DHT22;9930;49.240;8.548;2023-12-22T05:13:12;11.30;78.30
19567;DHT22;9930;49.240;8.548;2023-12-22T05:15:40;11.30;78.30
19567;DHT22;9930;49.240;8.548;2023-12-22T05:18:06;11.30;78.30
19567;DHT22;9930;49.240;8.548;2023-12-22T05:20:34;11.40;78.20
19567;DHT22;9930;49.240;8.548;2023-12-22T05:23:00;11.40;78.10
19567;DHT22;9930;49.240;8.548;2023-12-22T05:25:28;11.40;78.20
19567;DHT22;9930;49.240;8.548;2023-12-22T05:27:56;11.40;78.10
19567;DHT22;9930;49.240;8.548;2023-12-22T05:30:22;11.40;78.10
19567;DHT22;9930;49.240;8.548;2023-12-22T05:32:48;11.40;78.20
19567;DHT22;9930;49.240;8.548;2023-12-22T05:35:14;11.40;78.10
19567;DHT22;9930;49.240;8.548;2023-12-22T05:37:40;11.40;78.20
19567;DHT22;9930;49.240;8.548;2023-12-22T05:40:06;11.40;78.30
19567;DHT22;9930;49.240;8.548;2023-12-22T05:42:35;11.40;78.30
19567;DHT22;9930;49.240;8.548;2023-12-22T05:45:01;11.30;78.30
19567;DHT22;9930;49.240;8.548;2023-12-22T05:47:28;11.30;78.30
19567;DHT22;9930;49.240;8.548;2023-12-22T05:49:54;11.30;78.30
19567;DHT22;9930;49.240;8.548;2023-12-22T05:52:22;11.30;78.40
19567;DHT22;9930;49.240;8.548;2023-12-22T05:54:47;11.30;78.30
19567;DHT22;9930;49.240;8.548;2023-12-22T05:57:15;11.30;78.40
19567;DHT22;9930;49.240;8.548;2023-12-22T05:59:42;11.30;78.40
19567;DHT22;9930;49.240;8.548;2023-12-22T06:02:09;11.30;78.40
19567;DHT22;9930;49.240;8.548;2023-12-22T06:04:35;11.30;78.40
19567;DHT22;9930;49.240;8.548;2023-12-22T06:07:01;11.30;78.30
19567;DHT22;9930;49.240;8.548;2023-12-22T06:09:26;11.30;78.20
19567;DHT22;9930;49.240;8.548;2023-12-22T06:11:52;11.30;78.30
19567;DHT22;9930;49.240;8.548;2023-12-22T06:14:20;11.40;78.40
19567;DHT22;9930;49.240;8.548;2023-12-22T06:16:46;11.40;78.20
19567;DHT22;9930;49.240;8.548;2023-12-22T06:19:12;11.40;78.20
19567;DHT22;9930;49.240;8.548;2023-12-22T06:21:40;11.40;78.10
19567;DHT22;9930;49.240;8.548;2023-12-22T06:24:09;11.40;78.00
19567;DHT22;9930;49.240;8.548;2023-12-22T06:26:35;11.40;78.00
19567;DHT22;9930;49.240;8.548;2023-12-22T06:29:01;11.50;78.00
19567;DHT22;9930;49.240;8.548;2023-12-22T06:31:32;11.50;77.80
19567;DHT22;9930;49.240;8.548;2023-12-22T06:33:57;11.50;77.70
19567;DHT22;9930;49.240;8.548;2023-12-22T06:36:27;11.50;77.70
19567;DHT22;9930;49.240;8.548;2023-12-22T06:38:56;11.50;77.70
19567;DHT22;9930;49.240;8.548;2023-12-22T06:41:26;11.50;77.20
19567;DHT22;9930;49.240;8.548;2023-12-22T06:43:53;11.50;77.30
19567;DHT22;9930;49.240;8.548;2023-12-22T06:46:19;11.50;77.20
19567;DHT22;9930;49.240;8.548;2023-12-22T06:48:49;11.50;77.20
19567;DHT22;9930;49.240;8.548;2023-12-22T06:53:49;11.50;76.80
19567;DHT22;9930;49.240;8.548;2023-12-22T06:56:20;11.50;77.00
19567;DHT22;9930;49.240;8.548;2023-12-22T06:58:51;11.50;76.60
19567;DHT22;9930;49.240;8.548;2023-12-22T07:01:19;11.50;76.60
19567;DHT22;9930;49.240;8.548;2023-12-22T07:03:52;11.50;76.60
19567;DHT22;9930;49.240;8.548;2023-12-22T07:06:22;11.50;76.60
19567;DHT22;9930;49.240;8.548;2023-12-22T07:11:42;11.50;75.90
19567;DHT22;9930;49.240;8.548;2023-12-22T07:14:13;11.50;77.20
19567;DHT22;9930;49.240;8.548;2023-12-22T07:16:39;11.50;76.60
19567;DHT22;9930;49.240;8.548;2023-12-22T07:19:05;11.50;76.50
19567;DHT22;9930;49.240;8.548;2023-12-22T07:21:36;11.50;76.50
19567;DHT22;9930;49.240;8.548;2023-12-22T07:24:05;11.50;76.70
19567;DHT22;9930;49.240;8.548;2023-12-22T07:26:31;11.50;76.90
19567;DHT22;9930;49.240;8.548;2023-12-22T07:28:57;11.50;76.90
19567;DHT22;9930;49.240;8.548;2023-12-22T07:31:25;11.50;76.90
19567;DHT22;9930;49.240;8.548;2023-12-22T07:33:52;11.50;77.10
19567;DHT22;9930;49.240;8.548;2023-12-22T07:36:18;11.50;77.10
19567;DHT22;9930;49.240;8.548;2023-12-22T07:38:44;11.50;77.20
19567;DHT22;9930;49.240;8.548;2023-12-22T07:41:10;11.50;77.20
19567;DHT22;9930;49.240;8.548;2023-12-22T07:43:36;11.50;77.20
19567;DHT22;9930;49.240;8.548;2023-12-22T07:46:04;11.50;77.20
19567;DHT22;9930;49.240;8.548;2023-12-22T07:48:32;11.50;77.30
19567;DHT22;9930;49.240;8.548;2023-12-22T07:50:58;11.50;77.40
19567;DHT22;9930;49.240;8.548;2023-12-22T07:53:24;11.50;77.50
19567;DHT22;9930;49.240;8.548;2023-12-22T07:55:52;11.50;77.50
19567;DHT22;9930;49.240;8.548;2023-12-22T07:58:17;11.50;77.70
19567;DHT22;9930;49.240;8.548;2023-12-22T08:00:44;11.50;77.70
19567;DHT22;9930;49.240;8.548;2023-12-22T08:03:11;11.50;77.80
19567;DHT22;9930;49.240;8.548;2023-12-22T08:05:39;11.50;78.00
19567;DHT22;9930;49.240;8.548;2023-12-22T08:08:08;11.40;78.00
19567;DHT22;9930;49.240;8.548;2023-12-22T08:10:37;11.40;78.00
19567;DHT22;9930;49.240;8.548;2023-12-22T08:13:03;11.40;78.30
19567;DHT22;9930;49.240;8.548;2023-12-22T08:15:29;11.40;78.30
19567;DHT22;9930;49.240;8.548;2023-12-22T08:17:57;11.40;78.40
19567;DHT22;9930;49.240;8.548;2023-12-22T08:20:23;11.40;78.60
19567;DHT22;9930;49.240;8.548;2023-12-22T08:22:49;11.40;78.70
19567;DHT22;9930;49.240;8.548;2023-12-22T08:25:18;11.40;78.80
19567;DHT22;9930;49.240;8.548;2023-12-22T08:27:48;11.40;78.90
19567;DHT22;9930;49.240;8.548;2023-12-22T08:30:17;11.40;79.00
19567;DHT22;9930;49.240;8.548;2023-12-22T08:32:43;11.30;79.10
19567;DHT22;9930;49.240;8.548;2023-12-22T08:35:12;11.30;79.20
19567;DHT22;9930;49.240;8.548;2023-12-22T08:37:39;11.30;79.40
19567;DHT22;9930;49.240;8.548;2023-12-22T08:40:06;11.30;79.40
19567;DHT22;9930;49.240;8.548;2023-12-22T08:42:32;11.30;79.50
19567;DHT22;9930;49.240;8.548;2023-12-22T08:44:58;11.30;79.70
19567;DHT22;9930;49.240;8.548;2023-12-22T08:47:23;11.30;79.80
19567;DHT22;9930;49.240;8.548;2023-12-22T08:49:50;11.30;79.90
19567;DHT22;9930;49.240;8.548;2023-12-22T08:52:16;11.30;80.00
19567;DHT22;9930;49.240;8.548;2023-12-22T08:54:42;11.30;80.00
19567;DHT22;9930;49.240;8.548;2023-12-22T08:57:07;11.30;80.00
19567;DHT22;9930;49.240;8.548;2023-12-22T08:59:37;11.30;80.10
19567;DHT22;9930;49.240;8.548;2023-12-22T09:02:05;11.30;80.10
19567;DHT22;9930;49.240;8.548;2023-12-22T09:04:31;11.30;80.10
19567;DHT22;9930;49.240;8.548;2023-12-22T09:06:59;11.30;80.10
19567;DHT22;9930;49.240;8.548;2023-12-22T09:09:25;11.30;80.20
19567;DHT22;9930;49.240;8.548;2023-12-22T09:11:53;11.40;80.20
19567;DHT22;9930;49.240;8.548;2023-12-22T09:14:18;11.40;80.10
19567;DHT22;9930;49.240;8.548;2023-12-22T09:16:47;11.40;80.10
19567;DHT22;9930;49.240;8.548;2023-12-22T09:19:15;11.40;80.80
19567;DHT22;9930;49.240;8.548;2023-12-22T09:21:42;11.40;79.90
19567;DHT22;9930;49.240;8.548;2023-12-22T09:24:09;11.50;79.90
19567;DHT22;9930;49.240;8.548;2023-12-22T09:26:38;11.50;79.90
19567;DHT22;9930;49.240;8.548;2023-12-22T09:29:05;11.50;79.80
19567;DHT22;9930;49.240;8.548;2023-12-22T09:31:30;11.50;79.80
19567;DHT22;9930;49.240;8.548;2023-12-22T09:33:58;11.60;79.70
19567;DHT22;9930;49.240;8.548;2023-12-22T09:36:23;11.60;79.60
19567;DHT22;9930;49.240;8.548;2023-12-22T09:38:49;11.60;79.50
19567;DHT22;9930;49.240;8.548;2023-12-22T09:41:17;11.60;79.40
19567;DHT22;9930;49.240;8.548;2023-12-22T09:43:48;11.60;79.40
19567;DHT22;9930;49.240;8.548;2023-12-22T09:46:15;11.60;79.20
19567;DHT22;9930;49.240;8.548;2023-12-22T09:48:45;11.70;79.20
19567;DHT22;9930;49.240;8.548;2023-12-22T09:51:11;11.70;79.20
19567;DHT22;9930;49.240;8.548;2023-12-22T09:53:40;11.70;79.10
19567;DHT22;9930;49.240;8.548;2023-12-22T09:56:07;11.80;79.00
19567;DHT22;9930;49.240;8.548;2023-12-22T09:58:35;11.80;78.90
19567;DHT22;9930;49.240;8.548;2023-12-22T10:01:05;11.80;78.80
19567;DHT22;9930;49.240;8.548;2023-12-22T10:03:33;11.80;78.90
19567;DHT22;9930;49.240;8.548;2023-12-22T10:06:06;11.80;78.80
19567;DHT22;9930;49.240;8.548;2023-12-22T10:08:33;11.80;78.70
19567;DHT22;9930;49.240;8.548;2023-12-22T10:11:04;11.90;78.70
19567;DHT22;9930;49.240;8.548;2023-12-22T10:13:31;11.90;78.60
19567;DHT22;9930;49.240;8.548;2023-12-22T10:15:59;11.90;78.60
19567;DHT22;9930;49.240;8.548;2023-12-22T10:18:28;11.90;78.50
19567;DHT22;9930;49.240;8.548;2023-12-22T10:20:56;11.90;78.40
19567;DHT22;9930;49.240;8.548;2023-12-22T10:23:22;11.90;78.50
19567;DHT22;9930;49.240;8.548;2023-12-22T10:25:50;11.90;78.30
19567;DHT22;9930;49.240;8.548;2023-12-22T10:28:18;12.00;78.40
19567;DHT22;9930;49.240;8.548;2023-12-22T10:30:50;12.00;78.40
19567;DHT22;9930;49.240;8.548;2023-12-22T10:33:18;12.00;78.40
19567;DHT22;9930;49.240;8.548;2023-12-22T10:35:44;12.00;78.30
19567;DHT22;9930;49.240;8.548;2023-12-22T10:38:14;12.00;78.30
19567;DHT22;9930;49.240;8.548;2023-12-22T10:40:42;12.00;78.30
19567;DHT22;9930;49.240;8.548;2023-12-22T10:43:13;12.00;78.20
19567;DHT22;9930;49.240;8.548;2023-12-22T10:45:40;12.10;78.30
19567;DHT22;9930;49.240;8.548;2023-12-22T10:48:06;12.10;78.30
19567;DHT22;9930;49.240;8.548;2023-12-22T10:50:32;12.10;78.30
19567;DHT22;9930;49.240;8.548;2023-12-22T10:52:58;12.10;78.30
19567;DHT22;9930;49.240;8.548;2023-12-22T10:55:28;12.10;78.30
19567;DHT22;9930;49.240;8.548;2023-12-22T10:58:02;12.10;78.30
19567;DHT22;9930;49.240;8.548;2023-12-22T11:00:32;12.10;78.20
19567;DHT22;9930;49.240;8.548;2023-12-22T11:03:01;12.20;78.40
19567;DHT22;9930;49.240;8.548;2023-12-22T11:05:33;12.20;78.30
19567;DHT22;9930;49.240;8.548;2023-12-22T11:08:00;12.20;78.30
19567;DHT22;9930;49.240;8.548;2023-12-22T11:10:30;12.20;78.40
19567;DHT22;9930;49.240;8.548;2023-12-22T11:13:04;12.20;78.40
19567;DHT22;9930;49.240;8.548;2023-12-22T11:15:30;12.20;78.50
19567;DHT22;9930;49.240;8.548;2023-12-22T11:18:01;12.20;78.50
19567;DHT22;9930;49.240;8.548;2023-12-22T11:20:30;12.20;78.60
19567;DHT22;9930;49.240;8.548;2023-12-22T11:22:59;12.20;78.60
19567;DHT22;9930;49.240;8.548;2023-12-22T11:25:26;12.20;78.70
19567;DHT22;9930;49.240;8.548;2023-12-22T11:27:58;12.20;79.50
19567;DHT22;9930;49.240;8.548;2023-12-22T11:30:24;12.20;78.90
19567;DHT22;9930;49.240;8.548;2023-12-22T11:32:53;12.20;79.00
19567;DHT22;9930;49.240;8.548;2023-12-22T11:35:22;12.20;79.10
19567;DHT22;9930;49.240;8.548;2023-12-22T11:37:49;12.10;79.20
19567;DHT22;9930;49.240;8.548;2023-12-22T11:40:15;12.10;79.20
19567;DHT22;9930;49.240;8.548;2023-12-22T11:42:46;12.10;79.30
19567;DHT22;9930;49.240;8.548;2023-12-22T11:45:17;12.10;79.40
19567;DHT22;9930;49.240;8.548;2023-12-22T11:47:45;12.10;79.60
19567;DHT22;9930;49.240;8.548;2023-12-22T11:50:28;12.10;79.60
19567;DHT22;9930;49.240;8.548;2023-12-22T11:53:18;12.10;79.70
19567;DHT22;9930;49.240;8.548;2023-12-22T11:58:37;12.10;79.90
19567;DHT22;9930;49.240;8.548;2023-12-22T12:01:17;12.10;79.90
19567;DHT22;9930;49.240;8.548;2023-12-22T12:03:55;12.10;80.00
19567;DHT22;9930;49.240;8.548;2023-12-22T12:08:59;12.10;80.10
19567;DHT22;9930;49.240;8.548;2023-12-22T12:14:26;12.10;80.20
19567;DHT22;9930;49.240;8.548;2023-12-22T12:17:08;12.10;80.20
19567;DHT22;9930;49.240;8.548;2023-12-22T12:19:42;12.10;80.30
19567;DHT22;9930;49.240;8.548;2023-12-22T12:22:08;12.10;80.20
19567;DHT22;9930;49.240;8.548;2023-12-22T12:24:37;12.10;80.30
19567;DHT22;9930;49.240;8.548;2023-12-22T12:27:07;12.10;80.50
19567;DHT22;9930;49.240;8.548;2023-12-22T12:29:35;12.10;80.50
19567;DHT22;9930;49.240;8.548;2023-12-22T12:32:07;12.10;80.70
19567;DHT22;9930;49.240;8.548;2023-12-22T12:34:42;12.00;80.70
19567;DHT22;9930;49.240;8.548;2023-12-22T12:37:09;12.10;80.70
19567;DHT22;9930;49.240;8.548;2023-12-22T12:39:39;12.10;80.70
19567;DHT22;9930;49.240;8.548;2023-12-22T12:42:07;12.10;80.80
19567;DHT22;9930;49.240;8.548;2023-12-22T12:44:35;12.10;80.90
19567;DHT22;9930;49.240;8.548;2023-12-22T12:47:14;12.10;81.00
19567;DHT22;9930;49.240;8.548;2023-12-22T12:49:42;12.00;81.20
19567;DHT22;9930;49.240;8.548;2023-12-22T12:52:15;12.00;81.20
19567;DHT22;9930;49.240;8.548;2023-12-22T12:54:43;12.00;81.40
19567;DHT22;9930;49.240;8.548;2023-12-22T12:57:21;12.00;81.40
19567;DHT22;9930;49.240;8.548;2023-12-22T12:59:48;12.00;82.00
19567;DHT22;9930;49.240;8.548;2023-12-22T13:02:19;12.10;81.80
19567;DHT22;9930;49.240;8.548;2023-12-22T13:04:46;12.10;81.90
19567;DHT22;9930;49.240;8.548;2023-12-22T13:07:12;12.10;82.00
19567;DHT22;9930;49.240;8.548;2023-12-22T13:09:48;12.10;82.00
19567;DHT22;9930;49.240;8.548;2023-12-22T13:12:14;12.10;82.10
19567;DHT22;9930;49.240;8.548;2023-12-22T13:14:45;12.10;82.20
19567;DHT22;9930;49.240;8.548;2023-12-22T13:17:11;12.10;82.40
19567;DHT22;9930;49.240;8.548;2023-12-22T13:19:37;12.20;82.40
19567;DHT22;9930;49.240;8.548;2023-12-22T13:22:06;12.20;82.40
19567;DHT22;9930;49.240;8.548;2023-12-22T13:24:32;12.20;82.40
19567;DHT22;9930;49.240;8.548;2023-12-22T13:27:02;12.30;82.50
19567;DHT22;9930;49.240;8.548;2023-12-22T13:29:44;12.30;82.60
19567;DHT22;9930;49.240;8.548;2023-12-22T13:32:20;12.30;82.70
19567;DHT22;9930;49.240;8.548;2023-12-22T13:34:51;12.30;82.60
19567;DHT22;9930;49.240;8.548;2023-12-22T13:37:18;12.30;82.60
19567;DHT22;9930;49.240;8.548;2023-12-22T13:39:46;12.40;82.60
19567;DHT22;9930;49.240;8.548;2023-12-22T13:42:16;12.40;82.60
19567;DHT22;9930;49.240;8.548;2023-12-22T13:44:47;12.40;82.70
19567;DHT22;9930;49.240;8.548;2023-12-22T13:47:15;12.40;82.70
19567;DHT22;9930;49.240;8.548;2023-12-22T13:49:42;12.40;82.70
19567;DHT22;9930;49.240;8.548;2023-12-22T13:52:32;12.40;82.70
19567;DHT22;9930;49.240;8.548;2023-12-22T13:55:16;12.40;82.70
19567;DHT22;9930;49.240;8.548;2023-12-22T13:58:01;12.50;82.80
19567;DHT22;9930;49.240;8.548;2023-12-22T14:00:33;12.50;82.80
19567;DHT22;9930;49.240;8.548;2023-12-22T14:03:02;12.50;82.70
19567;DHT22;9930;49.240;8.548;2023-12-22T14:05:31;12.50;83.30
19567;DHT22;9930;49.240;8.548;2023-12-22T14:08:00;12.60;82.70
19567;DHT22;9930;49.240;8.548;2023-12-22T14:10:26;12.60;82.70
19567;DHT22;9930;49.240;8.548;2023-12-22T14:12:51;12.60;82.70
19567;DHT22;9930;49.240;8.548;2023-12-22T14:15:17;12.70;82.60
19567;DHT22;9930;49.240;8.548;2023-12-22T14:17:51;12.70;82.60
19567;DHT22;9930;49.240;8.548;2023-12-22T14:20:21;12.80;82.60
19567;DHT22;9930;49.240;8.548;2023-12-22T14:22:47;12.80;82.50
19567;DHT22;9930;49.240;8.548;2023-12-22T14:25:13;12.80;82.50
19567;DHT22;9930;49.240;8.548;2023-12-22T14:27:39;12.80;82.40
19567;DHT22;9930;49.240;8.548;2023-12-22T14:30:05;12.80;82.20
19567;DHT22;9930;49.240;8.548;2023-12-22T14:32:31;12.90;82.30
19567;DHT22;9930;49.240;8.548;2023-12-22T14:34:59;12.90;82.30
19567;DHT22;9930;49.240;8.548;2023-12-22T14:37:26;12.90;82.20
19567;DHT22;9930;49.240;8.548;2023-12-22T14:39:54;12.90;82.10
19567;DHT22;9930;49.240;8.548;2023-12-22T14:42:20;12.90;82.10
19567;DHT22;9930;49.240;8.548;2023-12-22T14:44:46;12.90;82.10
19567;DHT22;9930;49.240;8.548;2023-12-22T14:47:12;13.00;82.10
19567;DHT22;9930;49.240;8.548;2023-12-22T14:49:38;13.00;82.10
19567;DHT22;9930;49.240;8.548;2023-12-22T14:52:09;13.00;82.00
19567;DHT22;9930;49.240;8.548;2023-12-22T14:54:36;13.00;82.00
19567;DHT22;9930;49.240;8.548;2023-12-22T14:57:02;13.00;82.00
19567;DHT22;9930;49.240;8.548;2023-12-22T14:59:28;13.00;81.90
19567;DHT22;9930;49.240;8.548;2023-12-22T15:01:54;13.00;81.90
19567;DHT22;9930;49.240;8.548;2023-12-22T15:04:22;13.00;81.90
19567;DHT22;9930;49.240;8.548;2023-12-22T15:06:50;13.00;81.90
19567;DHT22;9930;49.240;8.548;2023-12-22T15:09:17;13.00;81.90
19567;DHT22;9930;49.240;8.548;2023-12-22T15:11:44;13.00;81.90
19567;DHT22;9930;49.240;8.548;2023-12-22T15:14:11;13.00;81.80
19567;DHT22;9930;49.240;8.548;2023-12-22T15:16:43;13.00;81.90
19567;DHT22;9930;49.240;8.548;2023-12-22T15:19:13;13.00;81.90
19567;DHT22;9930;49.240;8.548;2023-12-22T15:21:40;13.00;81.80
19567;DHT22;9930;49.240;8.548;2023-12-22T15:24:11;13.00;81.80
19567;DHT22;9930;49.240;8.548;2023-12-22T15:26:41;13.00;82.20
19567;DHT22;9930;49.240;8.548;2023-12-22T15:29:09;13.00;81.80
19567;DHT22;9930;49.240;8.548;2023-12-22T15:31:42;12.90;81.70
19567;DHT22;9930;49.240;8.548;2023-12-22T15:34:12;12.90;81.60
19567;DHT22;9930;49.240;8.548;2023-12-22T15:36:40;13.00;81.80
19567;DHT22;9930;49.240;8.548;2023-12-22T15:39:06;13.00;81.80
19567;DHT22;9930;49.240;8.548;2023-12-22T15:41:32;13.00;81.80
19567;DHT22;9930;49.240;8.548;2023-12-22T15:43:57;13.00;81.70
19567;DHT22;9930;49.240;8.548;2023-12-22T15:46:23;13.00;81.70
19567;DHT22;9930;49.240;8.548;2023-12-22T15:48:49;13.00;81.60
19567;DHT22;9930;49.240;8.548;2023-12-22T15:51:14;13.00;81.50
19567;DHT22;9930;49.240;8.548;2023-12-22T15:53:42;13.00;82.20
19567;DHT22;9930;49.240;8.548;2023-12-22T15:56:13;13.00;81.40
19567;DHT22;9930;49.240;8.548;2023-12-22T15:58:43;13.10;81.40
19567;DHT22;9930;49.240;8.548;2023-12-22T16:01:12;13.10;81.20
19567;DHT22;9930;49.240;8.548;2023-12-22T16:03:41;13.10;81.20